Time;durP1;ratioP1;P1;durP2;ratioP2;P2;SDS_P1;SDS_P2;PMS_P1;PMS_P2;Temp;Humidity;BMP_temperature;BMP_pressure;BME280_temperature;BME280_humidity;BME280_pressure;Samples;Min_cycle;Max_cycle;Signal;HPM_P1;HPM_P2
2023/06/28 00:01:36;;;;;;;1.30;1.10;;;24.50;41.10;;;;;;5011756;28;20215;-71
2023/06/28 00:04:03;;;;;;;1.30;0.90;;;24.50;41.00;;;;;;5017275;28;20218;-72
2023/06/28 00:06:29;;;;;;;1.00;0.90;;;24.50;41.20;;;;;;5008550;28;20592;-72
2023/06/28 00:08:55;;;;;;;1.00;0.90;;;24.50;41.10;;;;;;5006737;28;21105;-72
2023/06/28 00:11:20;;;;;;;1.00;1.00;;;24.50;41.20;;;;;;5009716;28;20462;-72
2023/06/28 00:13:46;;;;;;;1.20;1.10;;;24.50;41.30;;;;;;5016966;28;20222;-72
2023/06/28 00:16:14;;;;;;;2.60;1.53;;;24.50;41.30;;;;;;5020103;28;20225;-72
2023/06/28 00:18:40;;;;;;;1.20;1.10;;;24.50;41.10;;;;;;5019738;28;20234;-72
2023/06/28 00:21:05;;;;;;;1.93;1.30;;;24.50;41.10;;;;;;5009840;28;20448;-72
2023/06/28 00:23:32;;;;;;;5.23;1.10;;;24.50;41.00;;;;;;5015615;28;20215;-71
2023/06/28 00:25:57;;;;;;;1.20;1.10;;;24.50;41.00;;;;;;5015416;28;20231;-72
2023/06/28 00:28:23;;;;;;;1.20;1.10;;;24.50;40.80;;;;;;5019949;28;20479;-72
2023/06/28 00:30:48;;;;;;;1.50;1.40;;;24.50;40.70;;;;;;4999205;28;20215;-72
2023/06/28 00:33:19;;;;;;;1.37;1.27;;;24.50;40.60;;;;;;5015480;28;20219;-72
2023/06/28 00:35:46;;;;;;;2.13;1.33;;;24.50;40.60;;;;;;5012412;28;20777;-72
2023/06/28 00:38:11;;;;;;;2.33;1.27;;;24.50;40.60;;;;;;5009048;28;20477;-72
2023/06/28 00:40:37;;;;;;;1.20;1.10;;;24.50;40.60;;;;;;5013645;28;20452;-72
2023/06/28 00:43:02;;;;;;;3.17;1.20;;;24.50;40.60;;;;;;5001399;28;20220;-72
2023/06/28 00:45:28;;;;;;;1.70;1.60;;;24.50;40.40;;;;;;5013078;28;20230;-72
2023/06/28 00:47:54;;;;;;;1.20;1.10;;;24.50;40.40;;;;;;5012440;28;20211;-72
2023/06/28 00:50:20;;;;;;;1.63;1.40;;;24.50;40.30;;;;;;5019294;28;20705;-72
2023/06/28 00:52:46;;;;;;;1.70;1.03;;;24.50;40.30;;;;;;5013977;28;20256;-72
2023/06/28 00:55:12;;;;;;;3.37;1.23;;;24.50;40.30;;;;;;5010771;28;20641;-72
2023/06/28 00:57:39;;;;;;;1.37;1.27;;;24.50;40.30;;;;;;5007000;28;20320;-72
2023/06/28 01:00:12;;;;;;;1.63;1.00;;;24.50;40.20;;;;;;5018309;28;21092;-72
2023/06/28 01:02:41;;;;;;;2.20;1.20;;;24.50;40.20;;;;;;5007542;28;20456;-72
2023/06/28 01:05:09;;;;;;;1.30;1.20;;;24.50;40.30;;;;;;5012556;28;20483;-72
2023/06/28 01:07:36;;;;;;;1.50;1.40;;;24.40;40.10;;;;;;5013880;28;21372;-72
2023/06/28 01:10:03;;;;;;;2.07;1.00;;;24.40;40.20;;;;;;5020124;28;21071;-73
2023/06/28 01:12:30;;;;;;;1.13;1.03;;;24.50;40.20;;;;;;5017510;28;20484;-72
2023/06/28 01:14:55;;;;;;;1.20;1.10;;;24.40;40.10;;;;;;5021284;28;20468;-72
2023/06/28 01:17:21;;;;;;;1.20;1.10;;;24.50;40.10;;;;;;5019893;28;21794;-72
2023/06/28 01:19:47;;;;;;;1.60;1.20;;;24.40;40.00;;;;;;5012127;28;20226;-72
2023/06/28 01:22:14;;;;;;;1.40;1.30;;;24.50;40.00;;;;;;5021034;28;20551;-72
2023/06/28 01:24:40;;;;;;;1.60;1.50;;;24.40;40.00;;;;;;5015144;28;20459;-72
2023/06/28 01:27:11;;;;;;;1.30;1.20;;;24.40;40.00;;;;;;5005865;28;20457;-73
2023/06/28 01:29:37;;;;;;;2.60;1.20;;;24.40;39.90;;;;;;4999032;28;20459;-72
2023/06/28 01:32:05;;;;;;;1.30;1.10;;;24.50;40.20;;;;;;5009659;28;21042;-73
2023/06/28 01:34:30;;;;;;;2.07;1.10;;;24.50;40.20;;;;;;5015219;28;22367;-72
2023/06/28 01:36:59;;;;;;;1.40;1.30;;;24.40;40.10;;;;;;5014922;28;20463;-72
2023/06/28 01:39:25;;;;;;;1.30;1.20;;;24.50;40.30;;;;;;5017937;28;20780;-72
2023/06/28 01:41:52;;;;;;;1.83;1.43;;;24.40;40.20;;;;;;5012121;28;20527;-72
2023/06/28 01:44:18;;;;;;;1.97;1.20;;;24.40;40.10;;;;;;5013103;28;20467;-72
2023/06/28 01:46:44;;;;;;;1.57;1.03;;;24.40;40.20;;;;;;5014973;28;21261;-72
2023/06/28 01:49:10;;;;;;;1.17;1.07;;;24.40;40.30;;;;;;5004467;28;20471;-72
2023/06/28 01:51:36;;;;;;;1.17;1.07;;;24.40;40.30;;;;;;5009687;28;20889;-72
2023/06/28 01:54:03;;;;;;;2.60;1.30;;;24.50;40.50;;;;;;5016681;28;20234;-73
2023/06/28 01:56:29;;;;;;;1.00;0.90;;;24.40;40.50;;;;;;5004007;28;20463;-73
2023/06/28 01:58:54;;;;;;;1.30;1.20;;;24.40;40.50;;;;;;5007186;28;20548;-72
2023/06/28 02:01:20;;;;;;;1.30;1.20;;;24.40;40.50;;;;;;5016757;28;20634;-72
2023/06/28 02:03:46;;;;;;;1.20;1.10;;;24.40;40.50;;;;;;5010293;28;20226;-72
2023/06/28 02:06:12;;;;;;;1.00;1.00;;;24.50;40.50;;;;;;5011857;28;20261;-72
2023/06/28 02:08:37;;;;;;;2.07;1.10;;;24.40;40.60;;;;;;5010265;28;21205;-72
2023/06/28 02:11:03;;;;;;;1.87;1.20;;;24.40;40.60;;;;;;4999194;28;20226;-72
2023/06/28 02:13:28;;;;;;;3.67;1.70;;;24.40;40.60;;;;;;5010063;28;21544;-72
2023/06/28 02:15:55;;;;;;;1.33;1.23;;;24.40;40.50;;;;;;5006863;28;20222;-73
2023/06/28 02:18:24;;;;;;;2.33;1.10;;;24.40;40.40;;;;;;5018285;28;20222;-72
2023/06/28 02:20:53;;;;;;;1.10;1.00;;;24.40;40.30;;;;;;5017880;28;21159;-72
2023/06/28 02:23:19;;;;;;;1.20;1.10;;;24.40;40.50;;;;;;5014687;28;20521;-72
2023/06/28 02:25:44;;;;;;;1.20;1.10;;;24.40;40.60;;;;;;5018163;28;20490;-73
2023/06/28 02:28:10;;;;;;;1.10;1.00;;;24.40;40.80;;;;;;5014757;28;20460;-72
2023/06/28 02:30:35;;;;;;;1.20;1.10;;;24.40;40.80;;;;;;5010322;28;20223;-72
2023/06/28 02:33:01;;;;;;;2.27;1.23;;;24.40;40.90;;;;;;5008019;28;20222;-72
2023/06/28 02:35:27;;;;;;;1.30;1.20;;;24.40;40.80;;;;;;5006878;28;20218;-72
2023/06/28 02:37:52;;;;;;;1.10;1.00;;;24.40;40.90;;;;;;5017379;28;20242;-72
2023/06/28 02:40:18;;;;;;;1.50;1.37;;;24.40;40.90;;;;;;4999373;28;20252;-72
2023/06/28 02:42:44;;;;;;;1.30;1.20;;;24.40;41.00;;;;;;4999493;28;20233;-72
2023/06/28 02:45:10;;;;;;;1.20;1.10;;;24.40;41.10;;;;;;4998692;28;20381;-72
2023/06/28 02:47:35;;;;;;;1.83;1.00;;;24.40;41.00;;;;;;4999189;28;20238;-73
2023/06/28 02:50:05;;;;;;;2.20;1.20;;;24.40;41.10;;;;;;4996313;28;20468;-72
2023/06/28 02:52:32;;;;;;;1.23;1.00;;;24.40;41.00;;;;;;5011892;28;20230;-72
2023/06/28 02:54:57;;;;;;;1.20;1.10;;;24.40;41.10;;;;;;5010889;28;20507;-72
2023/06/28 02:57:23;;;;;;;1.30;1.20;;;24.40;41.20;;;;;;5011580;28;21050;-72
2023/06/28 02:59:48;;;;;;;1.20;1.10;;;24.40;41.20;;;;;;4998818;28;20734;-72
2023/06/28 03:02:17;;;;;;;1.40;1.23;;;24.40;41.10;;;;;;4996147;28;20230;-72
2023/06/28 03:04:43;;;;;;;1.30;1.20;;;24.40;41.00;;;;;;5000612;28;20681;-72
2023/06/28 03:07:15;;;;;;;1.30;1.20;;;24.40;41.10;;;;;;5017321;28;20460;-72
2023/06/28 03:09:41;;;;;;;2.00;1.40;;;24.40;41.00;;;;;;5008278;28;20340;-71
2023/06/28 03:12:07;;;;;;;1.80;1.20;;;24.40;40.90;;;;;;5014451;28;20444;-71
2023/06/28 03:14:34;;;;;;;1.40;1.13;;;24.40;41.00;;;;;;5006582;28;20234;-70
2023/06/28 03:16:59;;;;;;;1.93;1.20;;;24.40;41.00;;;;;;5007746;28;20475;-70
2023/06/28 03:19:28;;;;;;;1.13;1.03;;;24.40;41.10;;;;;;5018900;28;20463;-71
2023/06/28 03:21:53;;;;;;;2.40;1.30;;;24.40;41.20;;;;;;5009355;28;20284;-71
2023/06/28 03:24:19;;;;;;;1.23;1.00;;;24.40;41.30;;;;;;5014598;28;20467;-71
2023/06/28 03:26:47;;;;;;;1.57;1.10;;;24.40;41.50;;;;;;5004604;28;20247;-71
2023/06/28 03:29:13;;;;;;;1.97;1.30;;;24.40;41.60;;;;;;5002977;28;20227;-70
2023/06/28 03:31:38;;;;;;;0.90;0.90;;;24.40;41.70;;;;;;5018062;28;20473;-71
2023/06/28 03:34:04;;;;;;;1.20;1.10;;;24.40;41.80;;;;;;5013578;28;20227;-71
2023/06/28 03:36:31;;;;;;;1.37;1.27;;;24.40;41.90;;;;;;5016615;28;20602;-71
2023/06/28 03:38:57;;;;;;;1.30;1.20;;;24.40;41.90;;;;;;5010743;28;20283;-71
2023/06/28 03:41:24;;;;;;;0.93;0.90;;;24.40;42.00;;;;;;5001118;28;21055;-71
2023/06/28 03:43:50;;;;;;;1.50;1.27;;;24.40;42.00;;;;;;5009197;28;20265;-71
2023/06/28 03:46:15;;;;;;;1.10;1.00;;;24.40;42.00;;;;;;5012818;28;20464;-71
2023/06/28 03:48:41;;;;;;;1.30;1.17;;;24.40;42.10;;;;;;5014950;28;20693;-71
2023/06/28 03:51:06;;;;;;;1.30;1.20;;;24.40;42.10;;;;;;5015602;28;20352;-71
2023/06/28 03:53:32;;;;;;;1.20;1.10;;;24.40;42.20;;;;;;5018039;28;20284;-71
2023/06/28 03:55:57;;;;;;;1.30;1.20;;;24.40;42.20;;;;;;5018203;28;20230;-71
2023/06/28 03:58:23;;;;;;;1.20;1.10;;;24.40;42.20;;;;;;5018134;28;20227;-72
2023/06/28 04:00:48;;;;;;;1.43;1.33;;;24.40;42.30;;;;;;5019015;28;20258;-71
2023/06/28 04:03:15;;;;;;;1.20;1.10;;;24.40;42.30;;;;;;5018334;28;20229;-71
2023/06/28 04:05:41;;;;;;;1.40;1.20;;;24.40;42.30;;;;;;5006359;28;20296;-71
2023/06/28 04:08:08;;;;;;;1.70;1.13;;;24.40;42.40;;;;;;5022550;28;20463;-72
2023/06/28 04:10:36;;;;;;;1.73;1.60;;;24.40;42.40;;;;;;5014526;28;20700;-72
2023/06/28 04:13:01;;;;;;;1.50;1.40;;;24.40;42.50;;;;;;5014537;28;20503;-71
2023/06/28 04:15:27;;;;;;;1.30;1.20;;;24.40;42.40;;;;;;5009867;28;21266;-72
2023/06/28 04:17:52;;;;;;;1.60;0.90;;;24.40;42.50;;;;;;5013595;28;20241;-72
2023/06/28 04:20:18;;;;;;;1.00;0.90;;;24.40;42.50;;;;;;5015945;28;20731;-71
2023/06/28 04:22:45;;;;;;;1.40;1.30;;;24.40;42.50;;;;;;5017094;28;20324;-71
2023/06/28 04:25:11;;;;;;;1.20;1.10;;;24.40;42.60;;;;;;5020257;28;20345;-72
2023/06/28 04:27:36;;;;;;;4.40;1.30;;;24.30;42.50;;;;;;5008804;28;20925;-72
2023/06/28 04:30:02;;;;;;;1.10;1.00;;;24.40;42.70;;;;;;5000704;28;20551;-72
2023/06/28 04:32:28;;;;;;;1.30;1.20;;;24.30;43.30;;;;;;5017736;28;20255;-72
2023/06/28 04:34:56;;;;;;;1.10;1.00;;;24.30;42.60;;;;;;5010308;28;20288;-74
2023/06/28 04:37:25;;;;;;;1.30;1.20;;;24.40;42.90;;;;;;5017257;28;20993;-75
2023/06/28 04:39:51;;;;;;;1.27;1.17;;;24.40;42.90;;;;;;5014688;28;20471;-73
2023/06/28 04:42:16;;;;;;;1.10;1.00;;;24.40;42.80;;;;;;5012731;28;20466;-73
2023/06/28 04:44:48;;;;;;;1.20;1.10;;;24.30;42.80;;;;;;5010080;28;20214;-74
2023/06/28 04:47:17;;;;;;;1.27;1.17;;;24.40;42.90;;;;;;5012941;28;20721;-74
2023/06/28 04:49:48;;;;;;;1.00;0.93;;;24.40;43.00;;;;;;5014743;28;20460;-74
2023/06/28 04:52:18;;;;;;;0.90;0.90;;;24.40;43.00;;;;;;5019516;28;20459;-74
2023/06/28 04:54:45;;;;;;;1.77;1.43;;;24.40;43.10;;;;;;5010899;28;20959;-73
2023/06/28 04:57:12;;;;;;;3.80;1.77;;;24.40;43.10;;;;;;5006993;28;20472;-74
2023/06/28 04:59:38;;;;;;;1.20;1.10;;;24.40;43.10;;;;;;4991932;28;20473;-72
2023/06/28 05:02:05;;;;;;;1.20;1.00;;;24.40;43.10;;;;;;4992382;28;20464;-73
2023/06/28 05:04:32;;;;;;;1.10;1.00;;;24.40;43.10;;;;;;5008772;28;20221;-73
2023/06/28 05:07:09;;;;;;;1.57;1.10;;;24.40;43.10;;;;;;5008947;28;20995;-73
2023/06/28 05:09:36;;;;;;;1.30;1.00;;;24.40;43.10;;;;;;5016617;28;20480;-73
2023/06/28 05:12:02;;;;;;;0.90;0.90;;;24.40;43.10;;;;;;5015180;28;20503;-73
2023/06/28 05:14:29;;;;;;;1.20;1.10;;;24.40;43.10;;;;;;5010767;28;20471;-73
2023/06/28 05:16:55;;;;;;;1.10;1.00;;;24.40;43.10;;;;;;5013976;28;20464;-73
2023/06/28 05:19:24;;;;;;;1.30;1.10;;;24.40;43.10;;;;;;5005059;28;21131;-72
2023/06/28 05:21:50;;;;;;;1.10;1.00;;;24.40;43.10;;;;;;5004804;28;20310;-74
2023/06/28 05:24:16;;;;;;;1.17;1.07;;;24.40;43.10;;;;;;5000850;28;20570;-76
2023/06/28 05:26:42;;;;;;;1.10;1.00;;;24.40;43.10;;;;;;5009006;28;20697;-71
2023/06/28 05:29:07;;;;;;;1.30;1.00;;;24.40;43.10;;;;;;5001850;28;20471;-75
2023/06/28 05:31:33;;;;;;;1.13;1.03;;;24.40;43.10;;;;;;4993333;28;20213;-74
2023/06/28 05:33:58;;;;;;;1.30;1.00;;;24.40;43.10;;;;;;5010064;28;20230;-72
2023/06/28 05:36:24;;;;;;;1.20;1.10;;;24.40;43.10;;;;;;5009257;28;20223;-72
2023/06/28 05:38:49;;;;;;;1.70;1.10;;;24.40;43.10;;;;;;5006592;28;20214;-72
2023/06/28 05:41:16;;;;;;;1.37;1.27;;;24.40;43.10;;;;;;5011693;28;20316;-72
2023/06/28 05:43:43;;;;;;;1.40;1.17;;;24.40;43.10;;;;;;5002253;28;20725;-72
2023/06/28 05:46:09;;;;;;;1.00;0.90;;;24.40;43.10;;;;;;5011197;28;20555;-72
2023/06/28 05:48:35;;;;;;;0.90;0.90;;;24.40;43.10;;;;;;5011001;28;20463;-72
2023/06/28 05:51:00;;;;;;;1.20;1.10;;;24.40;43.10;;;;;;5009376;28;20219;-72
2023/06/28 05:53:26;;;;;;;1.33;1.13;;;24.40;43.10;;;;;;5010079;28;20319;-71
2023/06/28 05:55:52;;;;;;;1.20;1.10;;;24.40;43.10;;;;;;4998798;28;20229;-70
2023/06/28 05:58:21;;;;;;;1.70;1.03;;;24.40;43.10;;;;;;4997122;28;20651;-69
2023/06/28 06:00:46;;;;;;;1.10;1.00;;;24.40;43.10;;;;;;4990511;28;20218;-71
2023/06/28 06:03:12;;;;;;;1.20;1.10;;;24.40;43.10;;;;;;4996997;28;20974;-70
2023/06/28 06:05:38;;;;;;;0.90;0.90;;;24.40;43.10;;;;;;5021342;28;20296;-70
2023/06/28 06:08:04;;;;;;;1.10;1.00;;;24.40;43.10;;;;;;5003743;28;20646;-71
2023/06/28 06:10:30;;;;;;;2.47;1.20;;;24.40;43.10;;;;;;4999040;28;20227;-70
2023/06/28 06:12:56;;;;;;;1.03;0.93;;;24.40;43.10;;;;;;5019403;28;21017;-71
2023/06/28 06:15:21;;;;;;;1.13;1.03;;;24.40;43.10;;;;;;5008567;28;20252;-71
2023/06/28 06:17:47;;;;;;;0.90;0.90;;;24.40;43.10;;;;;;4998132;28;20219;-71
2023/06/28 06:20:15;;;;;;;1.10;1.00;;;24.40;43.10;;;;;;5010579;28;20357;-71
2023/06/28 06:22:42;;;;;;;1.07;1.00;;;24.40;43.10;;;;;;5014366;28;20675;-71
2023/06/28 06:25:08;;;;;;;1.20;1.10;;;24.40;43.10;;;;;;5012066;28;20479;-70
2023/06/28 06:27:34;;;;;;;1.20;1.10;;;24.40;43.10;;;;;;5011183;28;20559;-70
2023/06/28 06:30:00;;;;;;;1.20;1.10;;;24.40;43.10;;;;;;5013101;28;20217;-71
2023/06/28 06:32:25;;;;;;;1.17;1.07;;;24.40;43.10;;;;;;5011170;28;20487;-71
2023/06/28 06:34:51;;;;;;;1.20;1.10;;;24.40;43.10;;;;;;5009280;28;20245;-71
2023/06/28 06:37:16;;;;;;;1.20;1.10;;;24.40;43.10;;;;;;5016325;28;20234;-71
2023/06/28 06:39:43;;;;;;;1.60;1.10;;;24.40;43.10;;;;;;5016597;28;20219;-70
2023/06/28 06:42:08;;;;;;;1.30;1.10;;;24.40;43.10;;;;;;5007106;28;20227;-71
2023/06/28 06:44:34;;;;;;;1.13;1.03;;;24.40;43.10;;;;;;4996289;28;20465;-72
2023/06/28 06:47:00;;;;;;;1.00;0.90;;;24.40;43.10;;;;;;5010438;28;20717;-73
2023/06/28 06:49:26;;;;;;;0.97;0.93;;;24.40;43.10;;;;;;5014614;28;20241;-73
2023/06/28 06:51:51;;;;;;;1.20;1.10;;;24.40;43.10;;;;;;5011527;28;20472;-71
2023/06/28 06:54:17;;;;;;;1.10;1.00;;;24.40;43.10;;;;;;5017069;28;20228;-69
2023/06/28 06:56:42;;;;;;;1.10;1.00;;;24.40;43.10;;;;;;5008475;28;20713;-70
2023/06/28 06:59:08;;;;;;;1.20;1.10;;;24.40;43.10;;;;;;5010353;28;20228;-74
2023/06/28 07:01:34;;;;;;;1.20;1.10;;;24.40;43.10;;;;;;5010235;28;20226;-72
2023/06/28 07:04:00;;;;;;;1.07;1.00;;;24.40;43.10;;;;;;5005088;28;20607;-71
2023/06/28 07:06:26;;;;;;;1.37;1.20;;;24.40;43.20;;;;;;5018704;28;20478;-71
2023/06/28 07:08:51;;;;;;;1.03;1.03;;;24.40;44.10;;;;;;4998866;28;21495;-72
2023/06/28 07:11:17;;;;;;;1.17;1.07;;;24.40;43.20;;;;;;5004397;28;20214;-72
2023/06/28 07:13:42;;;;;;;1.30;1.20;;;24.40;43.20;;;;;;5013100;28;20594;-75
2023/06/28 07:16:08;;;;;;;1.30;1.20;;;24.40;43.40;;;;;;5013581;28;20230;-74
2023/06/28 07:18:33;;;;;;;1.20;1.10;;;24.40;43.30;;;;;;5015117;28;20218;-74
2023/06/28 07:20:59;;;;;;;1.20;1.10;;;24.40;43.30;;;;;;5014292;28;20689;-74
2023/06/28 07:23:25;;;;;;;1.13;1.03;;;24.40;43.40;;;;;;5020135;28;20584;-74
2023/06/28 07:25:50;;;;;;;1.00;1.00;;;24.40;43.40;;;;;;5017985;28;20242;-74
2023/06/28 07:28:16;;;;;;;2.70;1.10;;;24.40;43.50;;;;;;5018961;28;20709;-74
2023/06/28 07:30:55;;;;;;;1.23;1.13;;;24.40;43.50;;;;;;5006790;28;20231;-74
2023/06/28 07:33:22;;;;;;;1.37;1.20;;;24.40;43.40;;;;;;5016689;28;20690;-74
2023/06/28 07:35:48;;;;;;;1.20;1.10;;;24.40;43.50;;;;;;5018823;28;20565;-73
2023/06/28 07:38:19;;;;;;;1.93;1.30;;;24.40;43.50;;;;;;5020936;28;21006;-74
2023/06/28 07:40:45;;;;;;;1.67;1.00;;;24.40;43.50;;;;;;5013007;28;20457;-74
2023/06/28 07:43:12;;;;;;;1.10;1.00;;;24.40;43.50;;;;;;5015062;28;20874;-74
2023/06/28 07:45:37;;;;;;;1.83;1.27;;;24.40;43.60;;;;;;5011056;28;21038;-74
2023/06/28 07:48:03;;;;;;;1.20;1.10;;;24.40;43.50;;;;;;5004718;28;20468;-74
2023/06/28 07:50:28;;;;;;;1.30;1.20;;;24.40;43.60;;;;;;4998915;28;20334;-73
2023/06/28 07:52:54;;;;;;;1.57;1.43;;;24.40;43.50;;;;;;5012160;28;20227;-74
2023/06/28 07:55:20;;;;;;;1.10;1.00;;;24.40;43.50;;;;;;5018968;28;20226;-74
2023/06/28 07:57:45;;;;;;;1.47;1.20;;;24.40;43.50;;;;;;5017732;28;20578;-74
2023/06/28 08:00:11;;;;;;;1.73;1.07;;;24.40;43.50;;;;;;5015652;28;20238;-73
2023/06/28 08:02:37;;;;;;;1.30;1.20;;;24.40;43.50;;;;;;5004925;28;20681;-74
2023/06/28 08:05:02;;;;;;;1.67;1.07;;;24.40;43.60;;;;;;5014694;28;20471;-74
2023/06/28 08:07:28;;;;;;;1.83;1.00;;;24.40;43.60;;;;;;5014942;28;20295;-74
2023/06/28 08:09:53;;;;;;;1.23;1.00;;;24.30;43.50;;;;;;5008431;28;20709;-74
2023/06/28 08:12:19;;;;;;;1.20;1.00;;;24.40;43.60;;;;;;5008229;28;20325;-74
2023/06/28 08:14:45;;;;;;;1.10;1.00;;;24.40;43.60;;;;;;5006023;28;20223;-74
2023/06/28 08:17:11;;;;;;;1.10;1.00;;;24.40;43.70;;;;;;5014831;28;20584;-73
2023/06/28 08:19:36;;;;;;;1.30;1.00;;;24.40;43.60;;;;;;5011630;28;20267;-74
2023/06/28 08:22:03;;;;;;;1.30;1.10;;;24.40;43.60;;;;;;5014298;28;20249;-73
2023/06/28 08:24:29;;;;;;;1.63;1.07;;;24.30;43.60;;;;;;5018712;28;20218;-74
2023/06/28 08:26:54;;;;;;;1.30;1.20;;;24.40;43.70;;;;;;5000045;28;20476;-74
2023/06/28 08:29:21;;;;;;;1.83;1.20;;;24.40;43.70;;;;;;5004665;28;20268;-74
2023/06/28 08:31:46;;;;;;;1.20;1.10;;;24.40;43.70;;;;;;5017555;28;20306;-73
2023/06/28 08:34:12;;;;;;;1.67;1.30;;;24.30;43.70;;;;;;5022583;28;20436;-74
2023/06/28 08:36:37;;;;;;;1.43;1.20;;;24.30;43.60;;;;;;5012327;28;20858;-73
2023/06/28 08:39:03;;;;;;;1.20;1.10;;;24.40;43.80;;;;;;5023113;28;20222;-73
2023/06/28 08:41:30;;;;;;;1.90;1.00;;;24.30;43.60;;;;;;5019478;28;20249;-73
2023/06/28 08:43:56;;;;;;;1.33;1.23;;;24.30;43.70;;;;;;5004916;28;20220;-74
2023/06/28 08:46:22;;;;;;;1.07;1.00;;;24.40;43.70;;;;;;5019060;28;20491;-73
2023/06/28 08:48:48;;;;;;;1.10;1.00;;;24.40;43.80;;;;;;5010456;28;20690;-74
2023/06/28 08:51:17;;;;;;;1.10;1.00;;;24.30;43.60;;;;;;5014792;28;20221;-73
2023/06/28 08:53:47;;;;;;;1.27;1.10;;;24.30;43.70;;;;;;5013258;28;21390;-74
2023/06/28 08:56:13;;;;;;;1.97;1.60;;;24.30;43.70;;;;;;5016901;28;21172;-74
2023/06/28 08:58:41;;;;;;;1.57;1.40;;;24.30;43.70;;;;;;5017537;28;20516;-74
2023/06/28 09:01:10;;;;;;;1.10;1.00;;;24.30;43.70;;;;;;5018150;28;20534;-74
2023/06/28 09:03:41;;;;;;;1.10;1.00;;;24.30;43.70;;;;;;5018832;28;21792;-74
2023/06/28 09:06:07;;;;;;;1.43;1.33;;;24.30;43.80;;;;;;5016358;28;20484;-73
2023/06/28 09:08:34;;;;;;;1.40;1.30;;;24.30;43.70;;;;;;5006867;28;20469;-74
2023/06/28 09:11:01;;;;;;;1.40;1.30;;;24.30;43.70;;;;;;4999607;28;20461;-73
2023/06/28 09:13:30;;;;;;;1.10;1.00;;;24.30;43.70;;;;;;4996886;28;20452;-74
2023/06/28 09:15:56;;;;;;;1.37;1.27;;;24.30;43.70;;;;;;4999276;28;20523;-74
2023/06/28 09:18:22;;;;;;;1.33;1.10;;;24.30;43.80;;;;;;4999262;28;21466;-74
2023/06/28 09:20:50;;;;;;;1.30;1.20;;;24.30;43.80;;;;;;5001198;28;20453;-74
2023/06/28 09:23:28;;;;;;;1.30;1.03;;;24.30;43.80;;;;;;5014396;28;21080;-72
2023/06/28 09:25:54;;;;;;;1.40;1.30;;;24.30;43.80;;;;;;5002233;28;20468;-73
2023/06/28 09:28:22;;;;;;;1.20;1.10;;;24.30;43.80;;;;;;5023378;28;20465;-73
2023/06/28 09:30:55;;;;;;;1.40;1.20;;;24.30;43.80;;;;;;5010178;28;21387;-73
2023/06/28 09:33:22;;;;;;;1.63;1.17;;;24.30;43.80;;;;;;5011520;28;21102;-73
2023/06/28 09:35:51;;;;;;;1.10;1.00;;;24.30;43.80;;;;;;5014792;28;21045;-73
2023/06/28 09:38:18;;;;;;;1.17;1.07;;;24.30;43.80;;;;;;5015133;28;20468;-73
2023/06/28 09:40:43;;;;;;;1.10;1.00;;;24.30;43.80;;;;;;5016377;28;20464;-73
2023/06/28 09:43:15;;;;;;;1.30;1.20;;;24.30;43.80;;;;;;5009956;28;20440;-73
2023/06/28 09:45:40;;;;;;;1.30;1.20;;;24.30;43.90;;;;;;5010847;28;20232;-73
2023/06/28 09:48:06;;;;;;;1.20;1.10;;;24.30;43.90;;;;;;5002100;28;20456;-73
2023/06/28 09:50:47;;;;;;;1.77;1.30;;;24.30;43.80;;;;;;5019715;28;20264;-73
2023/06/28 09:53:19;;;;;;;1.40;1.30;;;24.40;44.00;;;;;;5017499;28;20308;-73
2023/06/28 09:55:46;;;;;;;1.30;1.20;;;24.30;43.90;;;;;;5016397;28;20959;-73
2023/06/28 09:58:17;;;;;;;1.30;1.20;;;24.30;44.60;;;;;;5015601;28;20549;-73
2023/06/28 10:00:44;;;;;;;1.13;1.00;;;24.40;43.90;;;;;;5015541;28;20464;-73
2023/06/28 10:03:11;;;;;;;1.43;1.33;;;24.30;43.90;;;;;;5003847;28;20478;-73
2023/06/28 10:05:39;;;;;;;1.40;1.20;;;24.30;43.80;;;;;;5000854;28;20977;-73
2023/06/28 10:08:08;;;;;;;1.30;1.20;;;24.30;43.90;;;;;;5010937;28;20467;-73
2023/06/28 10:10:35;;;;;;;1.20;1.10;;;24.30;43.90;;;;;;5029624;28;20463;-73
2023/06/28 10:13:02;;;;;;;1.47;1.30;;;24.30;43.90;;;;;;5019113;28;21402;-73
2023/06/28 10:15:35;;;;;;;1.17;1.07;;;24.30;43.90;;;;;;5013300;28;20569;-73
2023/06/28 10:18:01;;;;;;;1.20;1.10;;;24.30;43.90;;;;;;5012646;28;20472;-73
2023/06/28 10:20:27;;;;;;;1.47;1.10;;;24.30;43.90;;;;;;5010963;28;20476;-73
2023/06/28 10:22:54;;;;;;;1.20;1.10;;;24.30;43.90;;;;;;5008542;28;20487;-72
2023/06/28 10:25:22;;;;;;;1.20;1.10;;;24.30;43.90;;;;;;5012429;28;20233;-73
2023/06/28 10:27:48;;;;;;;1.10;1.00;;;24.30;43.90;;;;;;5015824;28;20448;-72
2023/06/28 10:30:14;;;;;;;2.03;1.40;;;24.30;43.90;;;;;;5017495;28;20468;-73
2023/06/28 10:32:43;;;;;;;2.30;1.10;;;24.30;43.90;;;;;;5008027;28;20453;-72
2023/06/28 10:35:10;;;;;;;1.20;1.10;;;24.30;43.90;;;;;;5010136;28;20315;-72
2023/06/28 10:37:36;;;;;;;1.30;1.20;;;24.30;43.90;;;;;;5017330;28;21332;-74
2023/06/28 10:40:04;;;;;;;1.17;1.07;;;24.30;43.90;;;;;;5021017;28;20475;-74
2023/06/28 10:42:38;;;;;;;1.57;1.20;;;24.30;43.90;;;;;;5015766;28;20573;-74
2023/06/28 10:45:05;;;;;;;1.20;1.10;;;24.30;43.90;;;;;;5013129;28;20513;-74
2023/06/28 10:47:33;;;;;;;1.10;1.00;;;24.30;43.90;;;;;;4993444;28;20481;-74
2023/06/28 10:50:12;;;;;;;1.33;1.23;;;24.30;43.90;;;;;;5002364;28;20792;-74
2023/06/28 10:52:48;;;;;;;1.30;1.20;;;24.30;43.80;;;;;;5011536;28;21048;-74
2023/06/28 10:55:31;;;;;;;1.20;1.10;;;24.30;43.80;;;;;;5002754;28;21133;-74
2023/06/28 10:58:05;;;;;;;1.27;1.17;;;24.40;44.00;;;;;;5010265;28;21034;-74
2023/06/28 11:00:37;;;;;;;1.40;1.30;;;24.30;43.90;;;;;;5006961;28;20476;-73
2023/06/28 11:03:04;;;;;;;1.13;1.00;;;24.30;43.80;;;;;;5012208;28;21006;-73
2023/06/28 11:05:45;;;;;;;1.20;1.10;;;24.40;44.00;;;;;;5004709;28;20476;-75
2023/06/28 11:08:13;;;;;;;1.50;1.40;;;24.30;43.90;;;;;;5019141;28;20935;-75
2023/06/28 11:10:44;;;;;;;1.10;1.00;;;24.30;43.80;;;;;;5011067;28;20549;-75
2023/06/28 11:13:14;;;;;;;1.30;1.20;;;24.30;43.80;;;;;;5011113;28;20484;-77
2023/06/28 11:15:46;;;;;;;1.10;1.00;;;24.30;43.80;;;;;;5014994;28;21697;-75
2023/06/28 11:18:16;;;;;;;1.30;1.20;;;24.40;43.90;;;;;;5006559;28;20456;-74
2023/06/28 11:20:57;;;;;;;1.10;1.00;;;24.40;44.00;;;;;;5005209;28;20810;-75
2023/06/28 11:23:37;;;;;;;1.17;1.07;;;24.30;43.80;;;;;;4993803;28;20467;-75
2023/06/28 11:26:11;;;;;;;1.17;1.07;;;24.40;43.80;;;;;;5015860;28;20869;-71
2023/06/28 11:28:36;;;;;;;1.67;1.30;;;24.40;43.90;;;;;;4995571;28;20532;-70
2023/06/28 11:31:12;;;;;;;1.20;1.10;;;24.30;43.70;;;;;;5018510;28;20590;-70
2023/06/28 11:33:39;;;;;;;1.10;1.00;;;24.30;43.70;;;;;;5016532;28;20222;-70
2023/06/28 11:36:06;;;;;;;1.30;1.20;;;24.30;43.70;;;;;;5015554;28;20455;-70
2023/06/28 11:38:34;;;;;;;1.10;1.00;;;24.30;43.70;;;;;;5005466;28;20550;-70
2023/06/28 11:41:00;;;;;;;1.20;1.10;;;24.40;43.80;;;;;;5004234;28;20489;-70
2023/06/28 11:43:25;;;;;;;1.37;1.27;;;24.30;43.70;;;;;;5011655;28;20464;-70
2023/06/28 11:45:51;;;;;;;1.20;1.10;;;24.30;43.60;;;;;;5010685;28;20517;-70
2023/06/28 11:48:17;;;;;;;2.57;1.47;;;24.30;43.60;;;;;;5020341;28;20234;-73
2023/06/28 11:50:43;;;;;;;1.20;1.10;;;24.30;43.70;;;;;;5014583;28;20222;-70
2023/06/28 11:53:09;;;;;;;1.27;1.17;;;24.30;43.70;;;;;;5015026;28;20962;-70
2023/06/28 11:55:35;;;;;;;1.57;1.40;;;24.40;43.80;;;;;;4995831;28;20231;-70
2023/06/28 11:58:01;;;;;;;1.23;1.13;;;24.40;43.80;;;;;;5017778;28;20219;-70
2023/06/28 12:00:38;;;;;;;1.30;1.20;;;24.30;43.70;;;;;;5018105;28;20476;-70
2023/06/28 12:03:04;;;;;;;1.80;1.40;;;24.40;43.70;;;;;;5018668;28;20226;-69
2023/06/28 12:05:29;;;;;;;2.70;1.30;;;24.30;43.60;;;;;;5010149;28;20460;-70
2023/06/28 12:07:58;;;;;;;1.50;1.40;;;24.30;43.60;;;;;;5021897;28;20217;-70
2023/06/28 12:10:23;;;;;;;1.80;1.10;;;24.30;43.60;;;;;;5014693;28;20218;-70
2023/06/28 12:12:49;;;;;;;1.30;1.20;;;24.40;43.70;;;;;;5019112;28;20515;-70
2023/06/28 12:15:21;;;;;;;1.77;1.10;;;24.40;44.50;;;;;;5023186;28;20214;-70
2023/06/28 12:17:47;;;;;;;1.40;1.30;;;24.40;43.70;;;;;;5022270;28;20210;-71
2023/06/28 12:20:13;;;;;;;1.47;1.30;;;24.40;43.70;;;;;;5021393;28;20505;-69
2023/06/28 12:22:44;;;;;;;1.27;1.17;;;24.40;43.70;;;;;;5017366;28;20234;-70
2023/06/28 12:25:10;;;;;;;1.30;1.10;;;24.40;43.70;;;;;;5011475;28;20562;-70
2023/06/28 12:27:38;;;;;;;1.40;1.30;;;24.40;43.70;;;;;;5021372;28;21147;-70
2023/06/28 12:30:14;;;;;;;1.47;1.37;;;24.40;43.70;;;;;;5019331;28;20890;-70
2023/06/28 12:32:46;;;;;;;1.20;1.10;;;24.40;43.70;;;;;;5015671;28;20448;-69
2023/06/28 12:35:25;;;;;;;1.40;1.30;;;24.40;43.70;;;;;;5020174;28;20431;-70
2023/06/28 12:37:55;;;;;;;1.20;1.10;;;24.40;44.50;;;;;;5022612;28;20503;-70
2023/06/28 12:40:24;;;;;;;2.03;1.20;;;24.40;43.70;;;;;;5008978;28;20526;-70
2023/06/28 12:43:08;;;;;;;1.23;1.13;;;24.40;43.70;;;;;;5011623;28;20483;-70
2023/06/28 12:45:33;;;;;;;1.20;1.10;;;24.40;43.70;;;;;;5012370;28;20567;-70
2023/06/28 12:47:59;;;;;;;1.30;1.20;;;24.40;43.70;;;;;;5011964;28;20448;-70